Ambition — YS570Q — position and weather

sailwx.info

Track history (hours):
 
Tides and Currents Weather Stations Pressure Air Temp Water Temp Dewpoint Dewpoint Depression Visibility Wind Speed Wind Dir Waves Ship Positions

Ambition

Last reported at 2017-Dec-07 19:04 UTC. Time now 2017-Dec-17 08:17 UTC.
Position S 27°28' E 153°11'.
Warning: this ship's position is 9 days out of date.

Length 12 m.

Type: Sailing vessel. MMSI: 503052730.

Date/timePositionNaut miles runAvg speedWind from/ knotsBaromVisibWave heightAir tempDewpointWater temp
2017-Dec-07 19:04S 27°28' E 153°11'0 0.0
2017-Dec-07 18:19S 27°28' E 153°11'  
2017-Dec-01 17:15S 27°18' E 153°24'0 0.0
2017-Dec-01 16:45S 27°18' E 153°24'0 0.0
2017-Dec-01 09:42S 27°18' E 153°24'  
2017-Nov-29 02:25S 27°12' E 153°21'3 5.3
2017-Nov-29 01:53S 27°14' E 153°20'2 5.7
2017-Nov-29 01:30S 27°17' E 153°19'13 0.6
2017-Nov-28 04:23S 27°29' E 153°19'2 4.1
2017-Nov-28 04:00S 27°31' E 153°20'2 3.0
2017-Nov-28 03:30S 27°31' E 153°21'1 1.3
2017-Nov-28 02:40S 27°30' E 153°22'0 0.2
2017-Nov-28 01:59S 27°30' E 153°22'  
Track history (hours):
 
Tides and Currents Weather Stations Pressure Air Temp Water Temp Dewpoint Dewpoint Depression Visibility Wind Speed Wind Dir Waves Ship Positions

Ambition

Last reported at 2017-Dec-07 19:04 UTC. Time now 2017-Dec-17 08:17 UTC.
Position S 27°28' E 153°11'.
Warning: this ship's position is 9 days out of date.

Length 12 m.

Type: Sailing vessel. MMSI: 503052730.

Date/timePositionNaut miles runAvg speedWind from/ knotsBaromVisibWave heightAir tempDewpointWater temp
2017-Dec-07 19:04S 27°28' E 153°11'0 0.0
2017-Dec-07 18:19S 27°28' E 153°11'  
2017-Dec-01 17:15S 27°18' E 153°24'0 0.0
2017-Dec-01 16:45S 27°18' E 153°24'0 0.0
2017-Dec-01 09:42S 27°18' E 153°24'  
2017-Nov-29 02:25S 27°12' E 153°21'3 5.3
2017-Nov-29 01:53S 27°14' E 153°20'2 5.7
2017-Nov-29 01:30S 27°17' E 153°19'13 0.6
2017-Nov-28 04:23S 27°29' E 153°19'2 4.1
2017-Nov-28 04:00S 27°31' E 153°20'2 3.0
2017-Nov-28 03:30S 27°31' E 153°21'1 1.3
2017-Nov-28 02:40S 27°30' E 153°22'0 0.2
2017-Nov-28 01:59S 27°30' E 153°22'  

Dump ship's entire track history